Search for airport 
image banner adimage banner adimage banner ad
image banner ad

KCJJ - Ellen Church Field

Located in Cresco, United States

ICAO - CJJ, IATA -

Data provided by Airmate  

General information

Coordinates: N43°21'55" W92°7'59"
Elevation is 1279 feet MSL.
Magnetic variation is 02° East
View others Airports in Iowa

Operational data

Special qualification required
Current time UTC:
Current local time:
Weather at : KDEH - Decorah Muni ( 33 km )
METAR: KDEH 181735Z AUTO VRB06KT 10SM CLR 28/16 A2983 RMK AO2
View NOTAMs / SUP AIP / TFR affecting this airport [VIEW]
Communications frequencies: [VIEW]

Runways:

RWY identifierQFULength (ft)Width (ft)SurfaceLDA (ft)
15154°294950CONC
33334°294950CONC

Airport contact information

Address: Cresco United States

Satellite view of KCJJ